Terminal Aerodrome Forecast
Issued by NWS Charleston, SC

Home | Current Version | Previous Version | Text Only | Print | Product List | Glossary On
Versions: 1 2 3 4 5 6 7 8 9 10 11 12 13 14 15 16 17 18 19 20 21 22 23 24 25 26
000
FTUS42 KCHS 202134 AAA
TAFSAV
TAF AMD
KSAV 202134Z 2022/2118 16007KT P6SM SCT025 BKN100
      TEMPO 2022/2101 4SM SHRA SCT015 BKN025
     FM210300 00000KT P6SM SCT100 BKN200
     FM210900 00000KT P6SM SCT020 BKN200
     FM211500 14007KT P6SM SCT035=

USA.gov is the U.S. government's official web portal to all federal, state and local government web resources and services.